createdAt,value
2019-03-08T00:00:18.951Z,1014.01
2019-03-08T00:00:59.556Z,1014
2019-03-08T00:01:40.172Z,1014.03
2019-03-08T00:02:20.766Z,1013.98
2019-03-08T00:03:01.366Z,1014.01
2019-03-08T00:03:41.973Z,1014.03
2019-03-08T00:04:22.568Z,1014.01
2019-03-08T00:05:03.176Z,1014.02
2019-03-08T00:05:43.768Z,1013.98
2019-03-08T00:06:24.358Z,1013.95
2019-03-08T00:07:04.948Z,1013.96
2019-03-08T00:07:45.551Z,1013.97
2019-03-08T00:08:26.130Z,1013.97
2019-03-08T00:09:06.722Z,1013.93
2019-03-08T00:09:47.310Z,1013.93
2019-03-08T00:10:27.918Z,1013.93
2019-03-08T00:11:08.505Z,1013.92
2019-03-08T00:11:49.108Z,1013.92
2019-03-08T00:12:29.710Z,1013.92
2019-03-08T00:13:10.294Z,1013.92
2019-03-08T00:13:50.898Z,1013.94
2019-03-08T00:14:31.504Z,1013.94
2019-03-08T00:15:12.126Z,1013.9
2019-03-08T00:15:52.730Z,1013.91
2019-03-08T00:16:33.335Z,1013.89
2019-03-08T00:17:13.942Z,1013.9
2019-03-08T00:17:54.554Z,1013.89
2019-03-08T00:18:35.153Z,1013.84
2019-03-08T00:19:15.758Z,1013.84
2019-03-08T00:19:56.354Z,1013.85
2019-03-08T00:20:36.955Z,1013.81
2019-03-08T00:21:17.604Z,1013.82
2019-03-08T00:21:58.201Z,1013.79
2019-03-08T00:22:38.810Z,1013.81
2019-03-08T00:23:19.436Z,1013.8
2019-03-08T00:24:00.036Z,1013.81
2019-03-08T00:24:40.665Z,1013.79
2019-03-08T00:25:21.381Z,1013.8
2019-03-08T00:26:02.043Z,1013.83
2019-03-08T00:26:42.640Z,1013.83
2019-03-08T00:27:23.237Z,1013.84
2019-03-08T00:28:03.839Z,1013.86
2019-03-08T00:28:44.436Z,1013.86
2019-03-08T00:29:25.030Z,1013.91
2019-03-08T00:30:05.664Z,1013.85
2019-03-08T00:30:46.256Z,1013.89
2019-03-08T00:31:26.842Z,1013.89
2019-03-08T00:32:07.468Z,1013.89
2019-03-08T00:32:48.069Z,1013.87
2019-03-08T00:33:30.216Z,1013.85
2019-03-08T00:34:10.794Z,1013.87
2019-03-08T00:34:51.390Z,1013.84
2019-03-08T00:35:32.046Z,1013.83
2019-03-08T00:36:14.462Z,1013.85
2019-03-08T00:36:55.076Z,1013.84
2019-03-08T00:37:35.666Z,1013.82
2019-03-08T00:38:16.272Z,1013.85
2019-03-08T00:38:56.868Z,1013.87
2019-03-08T00:39:37.512Z,1013.81
2019-03-08T00:40:18.142Z,1013.81
2019-03-08T00:40:58.743Z,1013.81
2019-03-08T00:41:39.352Z,1013.8
2019-03-08T00:42:19.974Z,1013.83
2019-03-08T00:43:00.590Z,1013.81
2019-03-08T00:43:41.181Z,1013.82
2019-03-08T00:44:21.818Z,1013.82
2019-03-08T00:45:02.424Z,1013.82
2019-03-08T00:45:43.044Z,1013.8
2019-03-08T00:46:23.695Z,1013.78
2019-03-08T00:47:04.274Z,1013.83
2019-03-08T00:47:44.868Z,1013.8
2019-03-08T00:48:25.473Z,1013.79
2019-03-08T00:49:07.957Z,1013.76
2019-03-08T00:49:46.668Z,1013.8
2019-03-08T00:50:27.265Z,1013.78
2019-03-08T00:51:07.864Z,1013.78
2019-03-08T00:51:48.450Z,1013.79
2019-03-08T00:52:29.059Z,1013.77
2019-03-08T00:53:09.684Z,1013.8
2019-03-08T00:53:50.299Z,1013.81
2019-03-08T00:54:30.886Z,1013.82
2019-03-08T00:55:11.478Z,1013.83
2019-03-08T00:55:53.604Z,1013.85
2019-03-08T00:56:34.244Z,1013.83
2019-03-08T00:57:14.830Z,1013.84
2019-03-08T00:57:55.434Z,1013.81
2019-03-08T00:58:36.044Z,1013.83
2019-03-08T00:59:16.642Z,1013.81
2019-03-08T00:59:57.256Z,1013.84
2019-03-08T01:00:37.860Z,1013.79
2019-03-08T01:01:18.482Z,1013.79
2019-03-08T01:02:00.986Z,1013.82
2019-03-08T01:02:41.606Z,1013.85
2019-03-08T01:03:22.194Z,1013.79
2019-03-08T01:04:02.792Z,1013.87
2019-03-08T01:04:43.429Z,1013.87
2019-03-08T01:05:24.050Z,1013.89
2019-03-08T01:06:04.662Z,1013.87
2019-03-08T01:06:45.548Z,1013.9
2019-03-08T01:07:26.398Z,1013.91
2019-03-08T01:08:07.214Z,1013.88
2019-03-08T01:08:47.832Z,1013.93
2019-03-08T01:09:28.416Z,1013.89
2019-03-08T01:10:09.002Z,1013.88
2019-03-08T01:10:49.590Z,1013.91
2019-03-08T01:11:30.194Z,1013.96
2019-03-08T01:12:10.793Z,1013.92
2019-03-08T01:12:51.372Z,1013.95
2019-03-08T01:13:31.976Z,1013.96
2019-03-08T01:14:12.558Z,1013.99
2019-03-08T01:14:53.160Z,1014
2019-03-08T01:15:33.745Z,1013.98
2019-03-08T01:16:14.330Z,1014.02
2019-03-08T01:16:54.908Z,1014.01
2019-03-08T01:17:35.516Z,1013.98
2019-03-08T01:18:16.108Z,1014
2019-03-08T01:18:56.710Z,1014.01
2019-03-08T01:19:37.316Z,1014.02
2019-03-08T01:20:17.912Z,1014.01
2019-03-08T01:20:58.498Z,1014.02
2019-03-08T01:21:40.836Z,1014.09
2019-03-08T01:22:21.422Z,1014.08
2019-03-08T01:23:02.026Z,1014.09
2019-03-08T01:23:42.636Z,1014.13
2019-03-08T01:24:23.236Z,1014.12
2019-03-08T01:25:03.828Z,1014.13
2019-03-08T01:25:44.412Z,1014.15
2019-03-08T01:26:25.014Z,1014.14
2019-03-08T01:27:05.604Z,1014.15
2019-03-08T01:27:46.208Z,1014.16
2019-03-08T01:28:26.808Z,1014.17
2019-03-08T01:29:07.406Z,1014.16
2019-03-08T01:29:47.986Z,1014.19
2019-03-08T01:30:28.574Z,1014.16
2019-03-08T01:31:09.172Z,1014.15
2019-03-08T01:31:49.772Z,1014.15
2019-03-08T01:32:30.376Z,1014.15
2019-03-08T01:33:10.972Z,1014.13
2019-03-08T01:33:51.564Z,1014.16
2019-03-08T01:34:32.161Z,1014.13
2019-03-08T01:35:12.748Z,1014.14
2019-03-08T01:35:53.336Z,1014.12
2019-03-08T01:36:35.998Z,1014.12
2019-03-08T01:37:16.576Z,1014.14
2019-03-08T01:37:57.167Z,1014.16
2019-03-08T01:38:37.778Z,1014.18
2019-03-08T01:39:18.370Z,1014.16
2019-03-08T01:39:58.969Z,1014.2
2019-03-08T01:40:39.589Z,1014.2
2019-03-08T01:41:20.176Z,1014.21
2019-03-08T01:42:00.786Z,1014.17
2019-03-08T01:42:43.295Z,1014.21
2019-03-08T01:43:21.962Z,1014.23
2019-03-08T01:44:02.550Z,1014.24
2019-03-08T01:44:43.149Z,1014.22
2019-03-08T01:45:23.725Z,1014.22
2019-03-08T01:46:04.318Z,1014.24
2019-03-08T01:46:46.736Z,1014.23
2019-03-08T01:47:27.350Z,1014.21
2019-03-08T01:48:07.939Z,1014.23
2019-03-08T01:48:48.593Z,1014.26
2019-03-08T01:49:29.195Z,1014.25
2019-03-08T01:50:09.788Z,1014.23
2019-03-08T01:50:50.376Z,1014.25
2019-03-08T01:51:30.964Z,1014.27
2019-03-08T01:52:11.560Z,1014.24
2019-03-08T01:52:52.168Z,1014.27
2019-03-08T01:53:32.766Z,1014.25
2019-03-08T01:54:13.352Z,1014.23
2019-03-08T01:54:53.956Z,1014.21
2019-03-08T01:55:34.558Z,1014.21
2019-03-08T01:56:15.155Z,1014.18
2019-03-08T01:56:55.743Z,1014.15
2019-03-08T01:57:36.390Z,1014.2
2019-03-08T01:58:16.990Z,1014.16
2019-03-08T01:58:57.584Z,1014.17
2019-03-08T01:59:38.208Z,1014.19
2019-03-08T02:00:18.808Z,1014.19
2019-03-08T02:00:59.401Z,1014.22
2019-03-08T02:01:41.738Z,1014.23
2019-03-08T02:02:22.328Z,1014.22
2019-03-08T02:03:02.947Z,1014.26
2019-03-08T02:03:43.548Z,1014.3
2019-03-08T02:04:24.158Z,1014.26
2019-03-08T02:05:04.768Z,1014.28
2019-03-08T02:05:45.384Z,1014.29
2019-03-08T02:06:26.058Z,1014.3
2019-03-08T02:07:06.666Z,1014.29
2019-03-08T02:07:47.433Z,1014.35
2019-03-08T02:08:28.171Z,1014.33
2019-03-08T02:09:08.757Z,1014.34
2019-03-08T02:09:49.342Z,1014.35
2019-03-08T02:10:29.950Z,1014.35
2019-03-08T02:11:10.620Z,1014.37
2019-03-08T02:11:51.240Z,1014.32
2019-03-08T02:12:31.860Z,1014.31
2019-03-08T02:13:12.420Z,1014.35
2019-03-08T02:13:53.012Z,1014.32
2019-03-08T02:14:33.640Z,1014.32
2019-03-08T02:15:14.227Z,1014.29
2019-03-08T02:15:54.839Z,1014.27
2019-03-08T02:16:35.422Z,1014.27
2019-03-08T02:17:16.040Z,1014.29
2019-03-08T02:17:56.657Z,1014.25
2019-03-08T02:18:37.247Z,1014.27
2019-03-08T02:19:17.841Z,1014.29
2019-03-08T02:19:58.427Z,1014.29
2019-03-08T02:20:39.021Z,1014.31
2019-03-08T02:21:19.628Z,1014.29
2019-03-08T02:22:00.220Z,1014.29
2019-03-08T02:22:40.804Z,1014.28
2019-03-08T02:23:21.408Z,1014.29
2019-03-08T02:24:02.008Z,1014.3
2019-03-08T02:24:42.682Z,1014.29
2019-03-08T02:25:23.289Z,1014.31
2019-03-08T02:26:03.889Z,1014.28
2019-03-08T02:26:44.494Z,1014.3
2019-03-08T02:27:25.076Z,1014.31
2019-03-08T02:28:05.666Z,1014.27
2019-03-08T02:28:46.296Z,1014.28
2019-03-08T02:29:26.912Z,1014.29
2019-03-08T02:30:07.522Z,1014.27
2019-03-08T02:30:48.128Z,1014.23
2019-03-08T02:31:28.720Z,1014.24
2019-03-08T02:32:09.340Z,1014.26
2019-03-08T02:32:49.938Z,1014.22
2019-03-08T02:33:30.541Z,1014.23
2019-03-08T02:34:11.146Z,1014.24
2019-03-08T02:34:51.762Z,1014.24
2019-03-08T02:35:32.406Z,1014.24
2019-03-08T02:36:12.987Z,1014.22
2019-03-08T02:36:53.574Z,1014.23
2019-03-08T02:37:36.176Z,1014.23
2019-03-08T02:38:16.812Z,1014.23
2019-03-08T02:38:57.392Z,1014.22
2019-03-08T02:39:38.004Z,1014.18
2019-03-08T02:40:18.588Z,1014.23
2019-03-08T02:40:59.211Z,1014.2
2019-03-08T02:41:39.810Z,1014.17
2019-03-08T02:42:20.408Z,1014.18
2019-03-08T02:43:01.010Z,1014.17
2019-03-08T02:43:41.617Z,1014.19
2019-03-08T02:44:22.210Z,1014.18
2019-03-08T02:45:02.850Z,1014.12
2019-03-08T02:45:43.444Z,1014.15
2019-03-08T02:46:24.036Z,1014.15
2019-03-08T02:47:04.662Z,1014.15
2019-03-08T02:47:45.256Z,1014.13
2019-03-08T02:48:25.851Z,1014.12
2019-03-08T02:49:06.477Z,1014.14
2019-03-08T02:49:47.042Z,1014.16
2019-03-08T02:50:27.632Z,1014.18
2019-03-08T02:51:08.216Z,1014.15
2019-03-08T02:51:48.807Z,1014.14
2019-03-08T02:52:29.399Z,1014.12
2019-03-08T02:53:09.987Z,1014.12
2019-03-08T02:53:50.572Z,1014.07
2019-03-08T02:54:31.200Z,1014.08
2019-03-08T02:55:11.849Z,1014.09
2019-03-08T02:55:52.476Z,1014.09
2019-03-08T02:56:33.072Z,1014.07
2019-03-08T02:57:13.655Z,1014.05
2019-03-08T02:57:54.251Z,1014.04
2019-03-08T02:58:34.842Z,1014.03
2019-03-08T02:59:15.441Z,1014.01
2019-03-08T02:59:56.032Z,1014.02
2019-03-08T03:00:36.628Z,1014.04
2019-03-08T03:01:17.224Z,1014.05
2019-03-08T03:01:57.844Z,1014.05
2019-03-08T03:02:40.395Z,1014.04
2019-03-08T03:03:21.028Z,1014.02
2019-03-08T03:04:01.685Z,1014.03
2019-03-08T03:04:42.290Z,1014.06
2019-03-08T03:05:22.876Z,1014.03
2019-03-08T03:06:03.470Z,1014.05
2019-03-08T03:06:44.094Z,1014.07
2019-03-08T03:07:24.842Z,1014.06
2019-03-08T03:08:05.441Z,1014.03
2019-03-08T03:08:46.058Z,1014.02
2019-03-08T03:09:26.646Z,1014.04
2019-03-08T03:10:07.242Z,1014.03
2019-03-08T03:10:47.826Z,1014.03
2019-03-08T03:11:28.430Z,1014.06
2019-03-08T03:12:09.034Z,1014.05
2019-03-08T03:12:49.636Z,1014.06
2019-03-08T03:13:30.275Z,1014.05
2019-03-08T03:14:10.899Z,1014.06
2019-03-08T03:14:51.505Z,1014.02
2019-03-08T03:15:32.107Z,1014.04
2019-03-08T03:16:12.715Z,1014.07
2019-03-08T03:16:53.311Z,1014.03
2019-03-08T03:17:33.898Z,1014.01
2019-03-08T03:18:14.503Z,1014.01
2019-03-08T03:18:56.685Z,1014.07
2019-03-08T03:19:37.324Z,1014.04
2019-03-08T03:20:17.960Z,1014.04
2019-03-08T03:20:58.561Z,1014
2019-03-08T03:21:39.168Z,1014.02
2019-03-08T03:22:19.760Z,1014.01
2019-03-08T03:23:00.398Z,1014.03
2019-03-08T03:23:40.999Z,1014.01
2019-03-08T03:24:21.637Z,1014.03
2019-03-08T03:25:02.249Z,1014.03
2019-03-08T03:25:44.799Z,1014.01
2019-03-08T03:26:25.400Z,1014.02
2019-03-08T03:27:06.010Z,1014.05
2019-03-08T03:27:46.646Z,1014.03
2019-03-08T03:28:27.240Z,1014.06
2019-03-08T03:29:07.833Z,1014.04
2019-03-08T03:29:48.427Z,1014.07
2019-03-08T03:30:29.021Z,1014.07
2019-03-08T03:31:09.612Z,1014.06
2019-03-08T03:31:50.209Z,1014.1
2019-03-08T03:32:30.807Z,1014.12
2019-03-08T03:33:11.398Z,1014.09
2019-03-08T03:33:51.998Z,1014.13
2019-03-08T03:34:32.589Z,1014.09
2019-03-08T03:35:13.247Z,1014.12
2019-03-08T03:35:53.860Z,1014.1
2019-03-08T03:36:34.463Z,1014.08
2019-03-08T03:37:15.058Z,1014.09
2019-03-08T03:37:55.662Z,1014.08
2019-03-08T03:38:36.280Z,1014.05
2019-03-08T03:39:16.877Z,1014.06
2019-03-08T03:39:57.481Z,1014.06
2019-03-08T03:40:39.574Z,1014.04
2019-03-08T03:41:20.156Z,1014.06
2019-03-08T03:42:00.745Z,1014.06
2019-03-08T03:42:41.342Z,1014.06
2019-03-08T03:43:21.949Z,1014.07
2019-03-08T03:44:04.408Z,1014.1
2019-03-08T03:44:45.008Z,1014.13
2019-03-08T03:45:25.626Z,1014.13
2019-03-08T03:46:06.223Z,1014.15
2019-03-08T03:46:46.831Z,1014.18
2019-03-08T03:47:27.406Z,1014.17
2019-03-08T03:48:08.032Z,1014.17
2019-03-08T03:48:48.638Z,1014.19
2019-03-08T03:49:29.220Z,1014.19
2019-03-08T03:50:09.850Z,1014.18
2019-03-08T03:50:52.079Z,1014.15
2019-03-08T03:51:32.660Z,1014.18
2019-03-08T03:52:13.258Z,1014.18
2019-03-08T03:52:53.863Z,1014.2
2019-03-08T03:53:34.461Z,1014.21
2019-03-08T03:54:15.061Z,1014.19
2019-03-08T03:54:55.661Z,1014.19
2019-03-08T03:55:36.272Z,1014.17
2019-03-08T03:56:16.883Z,1014.14
2019-03-08T03:56:57.479Z,1014.15
2019-03-08T03:57:38.063Z,1014.15
2019-03-08T03:58:18.669Z,1014.19
2019-03-08T03:59:01.080Z,1014.16
2019-03-08T03:59:41.676Z,1014.17
2019-03-08T04:00:22.290Z,1014.18
2019-03-08T04:01:02.885Z,1014.21
2019-03-08T04:01:43.489Z,1014.17
2019-03-08T04:02:24.084Z,1014.19
2019-03-08T04:03:04.739Z,1014.16
2019-03-08T04:03:45.382Z,1014.17
2019-03-08T04:04:25.989Z,1014.13
2019-03-08T04:05:06.621Z,1014.14
2019-03-08T04:05:47.236Z,1014.12
2019-03-08T04:06:27.837Z,1014.11
2019-03-08T04:07:08.445Z,1014.13
2019-03-08T04:07:49.045Z,1014.1
2019-03-08T04:08:29.650Z,1014.12
2019-03-08T04:09:10.254Z,1014.14
2019-03-08T04:09:50.852Z,1014.14
2019-03-08T04:10:31.455Z,1014.11
2019-03-08T04:11:12.057Z,1014.16
2019-03-08T04:11:52.673Z,1014.16
2019-03-08T04:12:33.305Z,1014.15
2019-03-08T04:13:14.026Z,1014.12
2019-03-08T04:13:54.638Z,1014.13
2019-03-08T04:14:35.255Z,1014.11
2019-03-08T04:15:15.871Z,1014.13
2019-03-08T04:15:56.455Z,1014.13
2019-03-08T04:16:37.059Z,1014.14
2019-03-08T04:17:17.660Z,1014.13
2019-03-08T04:17:58.260Z,1014.13
2019-03-08T04:18:38.867Z,1014.13
2019-03-08T04:19:19.461Z,1014.14
2019-03-08T04:20:00.049Z,1014.16
2019-03-08T04:20:40.641Z,1014.17
2019-03-08T04:21:21.230Z,1014.12
2019-03-08T04:22:01.841Z,1014.16
2019-03-08T04:22:42.453Z,1014.19
2019-03-08T04:23:23.043Z,1014.12
2019-03-08T04:24:03.645Z,1014.16
2019-03-08T04:24:45.831Z,1014.2
2019-03-08T04:25:26.450Z,1014.21
2019-03-08T04:26:07.064Z,1014.24
2019-03-08T04:26:47.678Z,1014.23
2019-03-08T04:27:28.288Z,1014.23
2019-03-08T04:28:08.887Z,1014.22
2019-03-08T04:28:49.537Z,1014.2
2019-03-08T04:29:31.709Z,1014.22
2019-03-08T04:30:12.319Z,1014.21
2019-03-08T04:30:52.907Z,1014.24
2019-03-08T04:31:33.498Z,1014.23
2019-03-08T04:32:14.102Z,1014.27
2019-03-08T04:32:54.689Z,1014.24
2019-03-08T04:33:35.318Z,1014.25
2019-03-08T04:34:15.941Z,1014.26
2019-03-08T04:34:56.557Z,1014.24
2019-03-08T04:35:37.161Z,1014.27
2019-03-08T04:36:17.753Z,1014.29
2019-03-08T04:36:58.359Z,1014.29
2019-03-08T04:37:42.955Z,1014.28
2019-03-08T04:38:25.322Z,1014.31
2019-03-08T04:39:05.933Z,1014.31
2019-03-08T04:39:46.583Z,1014.3
2019-03-08T04:40:27.181Z,1014.33
2019-03-08T04:41:07.794Z,1014.31
2019-03-08T04:41:48.401Z,1014.35
2019-03-08T04:42:28.999Z,1014.38
2019-03-08T04:43:09.618Z,1014.38
2019-03-08T04:43:50.203Z,1014.38
2019-03-08T04:44:30.789Z,1014.4
2019-03-08T04:45:11.385Z,1014.38
2019-03-08T04:45:51.987Z,1014.39
2019-03-08T04:46:32.569Z,1014.45
2019-03-08T04:47:13.172Z,1014.45
2019-03-08T04:47:53.781Z,1014.42
2019-03-08T04:48:34.344Z,1014.4
2019-03-08T04:49:14.945Z,1014.43
2019-03-08T04:49:55.538Z,1014.39
2019-03-08T04:50:36.127Z,1014.4
2019-03-08T04:51:18.456Z,1014.42
2019-03-08T04:51:59.101Z,1014.4
2019-03-08T04:52:39.716Z,1014.39
2019-03-08T04:53:20.321Z,1014.43
2019-03-08T04:54:00.911Z,1014.4
2019-03-08T04:54:41.499Z,1014.43
2019-03-08T04:55:22.116Z,1014.44
2019-03-08T04:56:02.740Z,1014.48
2019-03-08T04:56:43.339Z,1014.47
2019-03-08T04:57:23.937Z,1014.47
2019-03-08T04:58:04.533Z,1014.48
2019-03-08T04:58:46.732Z,1014.46
2019-03-08T04:59:27.343Z,1014.47
2019-03-08T05:00:07.951Z,1014.47
2019-03-08T05:00:48.541Z,1014.46
2019-03-08T05:01:29.139Z,1014.45
2019-03-08T05:02:09.727Z,1014.46
2019-03-08T05:02:50.323Z,1014.45
2019-03-08T05:03:30.919Z,1014.5
2019-03-08T05:04:11.543Z,1014.45
2019-03-08T05:04:52.123Z,1014.46
2019-03-08T05:05:32.725Z,1014.51
2019-03-08T05:06:13.331Z,1014.49
2019-03-08T05:06:55.865Z,1014.5
2019-03-08T05:07:36.463Z,1014.5
2019-03-08T05:08:17.059Z,1014.51
2019-03-08T05:08:57.661Z,1014.49
2019-03-08T05:09:38.270Z,1014.45
2019-03-08T05:10:18.876Z,1014.49
2019-03-08T05:10:59.477Z,1014.47
2019-03-08T05:11:40.074Z,1014.43
2019-03-08T05:12:20.673Z,1014.46
2019-03-08T05:13:01.285Z,1014.49
2019-03-08T05:13:41.899Z,1014.51
2019-03-08T05:14:22.489Z,1014.51
2019-03-08T05:15:03.077Z,1014.5
2019-03-08T05:15:43.671Z,1014.54
2019-03-08T05:16:24.269Z,1014.54
2019-03-08T05:17:04.879Z,1014.57
2019-03-08T05:17:45.465Z,1014.6
2019-03-08T05:18:26.041Z,1014.59
2019-03-08T05:19:06.653Z,1014.64
2019-03-08T05:19:47.288Z,1014.65
2019-03-08T05:20:27.875Z,1014.63
2019-03-08T05:21:08.471Z,1014.69
2019-03-08T05:21:49.045Z,1014.65
2019-03-08T05:22:29.662Z,1014.7
2019-03-08T05:23:10.287Z,1014.65
2019-03-08T05:23:50.873Z,1014.68
2019-03-08T05:24:31.461Z,1014.68
2019-03-08T05:25:12.057Z,1014.7
2019-03-08T05:25:52.649Z,1014.67
2019-03-08T05:26:35.121Z,1014.68
2019-03-08T05:27:15.714Z,1014.71
2019-03-08T05:27:56.290Z,1014.71
2019-03-08T05:28:36.894Z,1014.7
2019-03-08T05:29:17.479Z,1014.73
2019-03-08T05:29:58.077Z,1014.73
2019-03-08T05:30:40.255Z,1014.69
2019-03-08T05:31:20.869Z,1014.67
2019-03-08T05:32:01.445Z,1014.75
2019-03-08T05:32:42.048Z,1014.69
2019-03-08T05:33:22.641Z,1014.72
2019-03-08T05:34:03.228Z,1014.73
2019-03-08T05:34:43.831Z,1014.76
2019-03-08T05:35:24.425Z,1014.78
2019-03-08T05:36:05.013Z,1014.77
2019-03-08T05:36:45.622Z,1014.79
2019-03-08T05:37:26.199Z,1014.8
2019-03-08T05:38:06.795Z,1014.85
2019-03-08T05:38:47.401Z,1014.83
2019-03-08T05:39:27.993Z,1014.92
2019-03-08T05:40:08.585Z,1014.92
2019-03-08T05:40:49.189Z,1014.93
2019-03-08T05:41:29.794Z,1014.93
2019-03-08T05:42:10.385Z,1014.98
2019-03-08T05:42:51.001Z,1014.9
2019-03-08T05:43:33.301Z,1014.91
2019-03-08T05:44:13.941Z,1014.94
2019-03-08T05:44:54.547Z,1014.93
2019-03-08T05:45:35.157Z,1014.93
2019-03-08T05:46:15.771Z,1014.92
2019-03-08T05:46:56.368Z,1014.91
2019-03-08T05:47:37.001Z,1014.92
2019-03-08T05:48:17.595Z,1014.92
2019-03-08T05:48:58.190Z,1014.94
2019-03-08T05:49:38.789Z,1014.96
2019-03-08T05:50:19.409Z,1014.97
2019-03-08T05:51:00.004Z,1014.99
2019-03-08T05:51:44.489Z,1014.98
2019-03-08T05:52:25.095Z,1015.03
2019-03-08T05:53:05.698Z,1015.04
2019-03-08T05:53:48.149Z,1015.04
2019-03-08T05:54:28.737Z,1015.04
2019-03-08T05:55:09.399Z,1015.03
2019-03-08T05:55:51.041Z,1015.03
2019-03-08T05:56:33.363Z,1015.04
2019-03-08T05:57:13.957Z,1015.03
2019-03-08T05:57:54.592Z,1015.06
2019-03-08T05:58:35.239Z,1015.08
2019-03-08T05:59:17.497Z,1015.09
2019-03-08T05:59:58.091Z,1015.09
2019-03-08T06:00:38.671Z,1015.09
2019-03-08T06:01:19.275Z,1015.11
2019-03-08T06:01:59.875Z,1015.12
2019-03-08T06:02:40.481Z,1015.09
2019-03-08T06:03:21.079Z,1015.13
2019-03-08T06:04:01.677Z,1015.09
2019-03-08T06:04:42.295Z,1015.17
2019-03-08T06:05:22.949Z,1015.15
2019-03-08T06:06:03.541Z,1015.12
2019-03-08T06:06:44.141Z,1015.16
2019-03-08T06:07:24.743Z,1015.16
2019-03-08T06:08:05.334Z,1015.18
2019-03-08T06:08:45.929Z,1015.19
2019-03-08T06:09:26.557Z,1015.18
2019-03-08T06:10:07.155Z,1015.22
2019-03-08T06:10:47.741Z,1015.21
2019-03-08T06:11:28.335Z,1015.22
2019-03-08T06:12:08.923Z,1015.21
2019-03-08T06:12:49.515Z,1015.23
2019-03-08T06:13:30.107Z,1015.22
2019-03-08T06:14:10.715Z,1015.23
2019-03-08T06:14:51.315Z,1015.2
2019-03-08T06:15:31.931Z,1015.23
2019-03-08T06:16:12.531Z,1015.23
2019-03-08T06:16:53.163Z,1015.24
2019-03-08T06:17:33.755Z,1015.25
2019-03-08T06:18:14.362Z,1015.3
2019-03-08T06:18:54.970Z,1015.27
2019-03-08T06:19:35.579Z,1015.31
2019-03-08T06:20:16.205Z,1015.31
2019-03-08T06:20:56.811Z,1015.34
2019-03-08T06:21:37.433Z,1015.32
2019-03-08T06:22:18.018Z,1015.33
2019-03-08T06:22:58.615Z,1015.35
2019-03-08T06:23:39.210Z,1015.37
2019-03-08T06:24:19.823Z,1015.36
2019-03-08T06:25:00.449Z,1015.33
2019-03-08T06:25:41.101Z,1015.36
2019-03-08T06:26:21.637Z,1015.4
2019-03-08T06:27:02.223Z,1015.41
2019-03-08T06:27:42.837Z,1015.38
2019-03-08T06:28:23.441Z,1015.39
2019-03-08T06:29:04.046Z,1015.43
2019-03-08T06:29:44.668Z,1015.41
2019-03-08T06:30:25.258Z,1015.43
2019-03-08T06:31:05.858Z,1015.4
2019-03-08T06:31:46.499Z,1015.39
2019-03-08T06:32:27.095Z,1015.39
2019-03-08T06:33:07.704Z,1015.42
2019-03-08T06:33:48.299Z,1015.42
2019-03-08T06:34:28.889Z,1015.42
2019-03-08T06:35:09.477Z,1015.43
2019-03-08T06:35:50.068Z,1015.49
2019-03-08T06:36:30.661Z,1015.51
2019-03-08T06:37:11.261Z,1015.5
2019-03-08T06:37:51.847Z,1015.52
2019-03-08T06:38:32.439Z,1015.55
2019-03-08T06:39:13.040Z,1015.55
2019-03-08T06:39:53.631Z,1015.58
2019-03-08T06:40:34.242Z,1015.54
2019-03-08T06:41:14.829Z,1015.58
2019-03-08T06:41:55.431Z,1015.58
2019-03-08T06:42:36.042Z,1015.61
2019-03-08T06:43:16.654Z,1015.62
2019-03-08T06:43:57.231Z,1015.62
2019-03-08T06:44:37.826Z,1015.61
2019-03-08T06:45:18.427Z,1015.64
2019-03-08T06:45:59.019Z,1015.69
2019-03-08T06:46:39.609Z,1015.67
2019-03-08T06:47:20.213Z,1015.66
2019-03-08T06:48:00.891Z,1015.69
2019-03-08T06:48:41.487Z,1015.7
2019-03-08T06:49:22.109Z,1015.74
2019-03-08T06:50:02.706Z,1015.72
2019-03-08T06:50:43.313Z,1015.74
2019-03-08T06:51:23.916Z,1015.74
2019-03-08T06:52:04.515Z,1015.76
2019-03-08T06:52:45.160Z,1015.76
2019-03-08T06:53:25.763Z,1015.77
2019-03-08T06:54:06.351Z,1015.74
2019-03-08T06:54:46.951Z,1015.76
2019-03-08T06:55:27.585Z,1015.77
2019-03-08T06:56:08.187Z,1015.82
2019-03-08T06:56:49.261Z,1015.82
2019-03-08T06:57:29.853Z,1015.83
2019-03-08T06:58:10.435Z,1015.84
2019-03-08T06:58:51.039Z,1015.89
2019-03-08T06:59:31.649Z,1015.88
2019-03-08T07:00:12.281Z,1015.87
2019-03-08T07:00:52.883Z,1015.89
2019-03-08T07:01:33.499Z,1015.95
2019-03-08T07:02:14.116Z,1015.95
2019-03-08T07:02:54.719Z,1015.95
2019-03-08T07:03:35.316Z,1016.01
2019-03-08T07:04:15.907Z,1016
2019-03-08T07:04:56.511Z,1016.03
2019-03-08T07:05:37.800Z,1016.05
2019-03-08T07:06:18.395Z,1016.05
2019-03-08T07:06:59.147Z,1016.11
2019-03-08T07:07:39.958Z,1016.12
2019-03-08T07:08:20.552Z,1016.11
2019-03-08T07:09:03.025Z,1016.13
2019-03-08T07:09:43.637Z,1016.16
2019-03-08T07:10:24.227Z,1016.16
2019-03-08T07:11:04.899Z,1016.15
2019-03-08T07:11:45.491Z,1016.12
2019-03-08T07:12:26.089Z,1016.14
2019-03-08T07:13:06.701Z,1016.08
2019-03-08T07:13:47.526Z,1016.17
2019-03-08T07:14:28.101Z,1016.11
2019-03-08T07:15:10.600Z,1016.14
2019-03-08T07:15:51.195Z,1016.13
2019-03-08T07:16:31.796Z,1016.17
2019-03-08T07:17:12.406Z,1016.18
2019-03-08T07:17:53.003Z,1016.18
2019-03-08T07:18:33.667Z,1016.19
2019-03-08T07:19:14.259Z,1016.22
2019-03-08T07:19:54.869Z,1016.25
2019-03-08T07:20:35.471Z,1016.21
2019-03-08T07:21:16.071Z,1016.21
2019-03-08T07:21:56.661Z,1016.2
2019-03-08T07:22:37.256Z,1016.21
2019-03-08T07:23:24.859Z,1016.26
2019-03-08T07:23:58.433Z,1016.27
2019-03-08T07:24:39.048Z,1016.31
2019-03-08T07:25:19.642Z,1016.31
2019-03-08T07:26:00.341Z,1016.32
2019-03-08T07:26:40.947Z,1016.35
2019-03-08T07:27:21.553Z,1016.33
2019-03-08T07:28:02.139Z,1016.38
2019-03-08T07:28:42.747Z,1016.41
2019-03-08T07:29:23.385Z,1016.37
2019-03-08T07:30:03.995Z,1016.42
2019-03-08T07:30:44.595Z,1016.43
2019-03-08T07:31:25.187Z,1016.49
2019-03-08T07:32:05.791Z,1016.48
2019-03-08T07:32:46.398Z,1016.51
2019-03-08T07:33:26.995Z,1016.51
2019-03-08T07:34:07.604Z,1016.53
2019-03-08T07:34:48.209Z,1016.6
2019-03-08T07:35:28.800Z,1016.53
2019-03-08T07:36:09.408Z,1016.57
2019-03-08T07:36:50.002Z,1016.61
2019-03-08T07:37:30.599Z,1016.64
2019-03-08T07:38:11.210Z,1016.63
2019-03-08T07:38:51.815Z,1016.65
2019-03-08T07:39:32.415Z,1016.68
2019-03-08T07:40:13.013Z,1016.7
2019-03-08T07:40:53.633Z,1016.72
2019-03-08T07:41:34.247Z,1016.73
2019-03-08T07:42:14.855Z,1016.76
2019-03-08T07:42:55.451Z,1016.76
2019-03-08T07:43:36.052Z,1016.77
2019-03-08T07:44:16.647Z,1016.79
2019-03-08T07:44:57.242Z,1016.78
2019-03-08T07:45:37.845Z,1016.79
2019-03-08T07:46:18.435Z,1016.81
2019-03-08T07:46:59.043Z,1016.79
2019-03-08T07:47:39.636Z,1016.78
2019-03-08T07:48:20.223Z,1016.78
2019-03-08T07:49:00.803Z,1016.78
2019-03-08T07:49:41.399Z,1016.82
2019-03-08T07:50:22.001Z,1016.8
2019-03-08T07:51:04.438Z,1016.87
2019-03-08T07:51:45.044Z,1016.82
2019-03-08T07:52:25.668Z,1016.86
2019-03-08T07:53:06.260Z,1016.87
2019-03-08T07:53:46.855Z,1016.88
2019-03-08T07:54:27.454Z,1016.92
2019-03-08T07:55:08.051Z,1016.94
2019-03-08T07:55:48.657Z,1016.92
2019-03-08T07:56:29.251Z,1016.95
2019-03-08T07:57:09.847Z,1016.92
2019-03-08T07:57:50.450Z,1016.94
2019-03-08T07:58:31.046Z,1016.94
2019-03-08T07:59:11.626Z,1016.95
2019-03-08T07:59:53.838Z,1016.94
2019-03-08T08:00:32.831Z,1016.96
2019-03-08T08:01:13.441Z,1016.93
2019-03-08T08:01:54.060Z,1016.96
2019-03-08T08:02:34.677Z,1016.97
2019-03-08T08:03:15.266Z,1016.94
2019-03-08T08:03:55.873Z,1017
2019-03-08T08:04:36.474Z,1017
2019-03-08T08:05:17.075Z,1017.03
2019-03-08T08:05:58.464Z,1017.09
2019-03-08T08:06:38.302Z,1017.09
2019-03-08T08:07:18.888Z,1017.07
2019-03-08T08:07:59.483Z,1017.11
2019-03-08T08:08:40.101Z,1017.13
2019-03-08T08:09:20.714Z,1017.13
2019-03-08T08:10:01.320Z,1017.1
2019-03-08T08:10:41.908Z,1017.11
2019-03-08T08:11:22.509Z,1017.12
2019-03-08T08:12:03.118Z,1017.1
2019-03-08T08:12:43.726Z,1017.11
2019-03-08T08:13:24.329Z,1017.13
2019-03-08T08:14:04.929Z,1017.13